createdAt,value
2023-03-23T15:58:31.280Z,15.47
2023-03-23T16:00:06.546Z,15.64
2023-03-23T16:01:36.349Z,15.39
2023-03-23T16:03:04.638Z,15.27
2023-03-23T16:10:42.287Z,15.09
2023-03-23T16:15:49.491Z,15.37
2023-03-23T16:20:32.941Z,15.37
2023-03-23T16:23:09.634Z,15.37
2023-03-23T16:24:42.398Z,15.44
2023-03-23T16:26:45.405Z,15.37
2023-03-23T16:30:50.021Z,15.17
2023-03-23T16:32:48.989Z,15.18
2023-03-23T16:36:06.692Z,15.22
2023-03-23T16:39:05.760Z,15.31
2023-03-23T16:43:46.786Z,15.21
2023-03-23T16:45:45.412Z,15.22
2023-03-23T16:47:33.881Z,15.17
2023-03-23T16:49:38.780Z,15.21
2023-03-23T16:53:47.711Z,14.94
2023-03-23T16:55:57.922Z,14.88
2023-03-23T16:58:17.749Z,14.91
2023-03-23T17:00:22.849Z,15.02
2023-03-23T17:03:28.840Z,14.65
2023-03-23T17:04:58.888Z,14.50
2023-03-23T17:09:15.132Z,14.53
2023-03-23T17:13:59.905Z,14.43
2023-03-23T17:17:21.645Z,14.32
2023-03-23T17:21:07.008Z,14.41
2023-03-23T17:22:36.218Z,14.41
2023-03-23T17:26:16.273Z,14.18
2023-03-23T17:27:48.150Z,14.15
2023-03-23T17:29:35.893Z,14.22
2023-03-23T17:32:24.678Z,14.14
2023-03-23T17:33:53.904Z,14.14
2023-03-23T17:35:44.371Z,14.18
2023-03-23T17:37:14.281Z,14.14
2023-03-23T17:39:42.449Z,14.11
2023-03-23T17:41:10.121Z,14.07
2023-03-23T17:44:53.080Z,14.11
2023-03-23T17:46:22.895Z,13.99
2023-03-23T17:53:58.111Z,13.86
2023-03-23T17:56:55.384Z,13.97
2023-03-23T18:01:45.369Z,13.86
2023-03-23T18:09:10.077Z,13.89
2023-03-23T18:17:36.907Z,13.71
2023-03-23T18:19:05.459Z,13.71
2023-03-23T18:20:34.008Z,13.78
2023-03-23T18:22:54.603Z,13.81
2023-03-23T18:26:35.681Z,13.70
2023-03-23T18:31:21.620Z,13.71
2023-03-23T18:34:31.338Z,13.67
2023-03-23T18:36:03.202Z,13.78
2023-03-23T18:38:00.221Z,13.85
2023-03-23T18:40:23.029Z,13.87
2023-03-23T18:42:23.841Z,13.83
2023-03-23T18:45:10.268Z,13.78
2023-03-23T18:54:12.366Z,13.86
2023-03-23T18:55:44.408Z,13.92
2023-03-23T18:57:45.227Z,13.95
2023-03-23T19:02:29.476Z,13.89
2023-03-23T19:07:57.912Z,13.85
2023-03-23T19:09:28.863Z,13.87
2023-03-23T19:14:35.913Z,14.00
2023-03-23T19:18:06.310Z,14.11
2023-03-23T19:23:44.869Z,14.04
2023-03-23T19:26:11.696Z,13.96
2023-03-23T19:29:21.434Z,14.08
2023-03-23T19:30:11.426Z,14.15
2023-03-23T19:31:44.683Z,14.15
2023-03-23T19:33:11.563Z,14.05
2023-03-23T19:38:47.227Z,14.04
2023-03-23T19:44:22.547Z,14.14
2023-03-23T19:46:28.335Z,14.12
2023-03-23T19:49:44.231Z,14.17
2023-03-23T19:52:31.323Z,14.15
2023-03-23T19:56:56.132Z,14.10
2023-03-23T20:00:49.420Z,14.33
2023-03-23T20:03:19.131Z,14.30
2023-03-23T20:07:03.210Z,14.35
2023-03-23T20:09:32.370Z,14.26
2023-03-23T20:11:03.296Z,14.28
2023-03-23T20:14:06.291Z,14.30
2023-03-23T20:18:43.134Z,14.36
2023-03-23T20:22:01.826Z,14.45
2023-03-23T20:28:12.180Z,14.59
2023-03-23T20:30:28.257Z,14.51
2023-03-23T20:32:29.103Z,14.54
2023-03-23T20:34:47.873Z,14.62
2023-03-23T20:36:16.808Z,14.63
2023-03-23T20:38:26.489Z,14.69
2023-03-23T20:45:30.951Z,14.47
2023-03-23T20:46:48.312Z,14.48
2023-03-23T20:47:27.339Z,14.58
2023-03-23T20:50:37.562Z,14.55
2023-03-23T21:00:08.824Z,14.59
2023-03-23T21:03:59.263Z,14.50
2023-03-23T21:07:20.078Z,14.66
2023-03-23T21:09:58.971Z,14.59
2023-03-23T21:12:38.097Z,14.59
2023-03-23T21:14:05.109Z,14.50
2023-03-23T21:19:09.259Z,14.60
2023-03-23T21:21:39.493Z,14.54
2023-03-23T21:24:21.804Z,14.66
2023-03-23T21:27:28.288Z,14.68
2023-03-23T21:36:54.450Z,14.51
2023-03-23T21:44:50.719Z,14.26
2023-03-23T21:46:22.557Z,14.26
2023-03-23T21:49:40.894Z,14.20
2023-03-23T21:52:48.939Z,14.18
2023-03-23T21:54:45.594Z,14.05
2023-03-23T21:56:14.954Z,14.08
2023-03-23T21:59:55.622Z,14.00
2023-03-23T22:01:25.589Z,13.93
2023-03-23T22:03:27.606Z,13.92
2023-03-23T22:06:01.235Z,13.86
2023-03-23T22:07:59.345Z,13.72
2023-03-23T22:12:45.737Z,13.74
2023-03-23T22:15:37.329Z,13.71
2023-03-23T22:19:00.321Z,13.72
2023-03-23T22:20:25.483Z,13.72
2023-03-23T22:21:55.930Z,13.60
2023-03-23T22:25:30.122Z,13.62
2023-03-23T22:28:56.052Z,13.68
2023-03-23T22:33:20.269Z,13.60
2023-03-23T22:37:11.417Z,13.44
2023-03-23T22:38:10.716Z,13.39
2023-03-23T22:39:10.693Z,13.49
2023-03-23T22:44:46.424Z,13.44
2023-03-23T22:50:36.014Z,13.33
2023-03-23T22:52:11.051Z,13.50
2023-03-23T22:57:07.609Z,13.20
2023-03-23T22:58:36.493Z,13.20
2023-03-23T23:01:06.266Z,13.30
2023-03-23T23:03:27.289Z,13.37
2023-03-23T23:09:21.047Z,13.23
2023-03-23T23:10:51.679Z,13.28
2023-03-23T23:12:20.607Z,13.37
2023-03-23T23:18:06.675Z,13.31
2023-03-23T23:21:56.283Z,13.16
2023-03-23T23:31:48.750Z,13.15
2023-03-23T23:34:13.047Z,13.12
2023-03-23T23:35:41.007Z,13.13
2023-03-23T23:37:09.915Z,13.01
2023-03-23T23:41:00.208Z,13.11
2023-03-23T23:41:59.509Z,13.15
2023-03-23T23:42:59.222Z,13.19
2023-03-23T23:46:16.853Z,13.19
2023-03-23T23:47:47.157Z,13.08
2023-03-23T23:50:19.655Z,13.18
2023-03-23T23:52:09.504Z,13.05
2023-03-23T23:55:39.053Z,13.08
2023-03-23T23:57:09.929Z,13.03
